National Weather Service Raw Text Product

Displaying AFOS PIL: TAFFOD Received: 2018-07-12 08:10 UTC


382 
FTUS43 KDMX 120810 AAA
TAFFOD
TAF AMD
KFOD 120810Z 1208/1306 17011G16KT P6SM SKC
     FM121700 20011G18KT P6SM SCT040 BKN070
     FM130100 18007KT P6SM BKN050 BKN110=